createdAt,value
2018-08-18T00:01:37.414Z,97653.00
2018-08-18T00:04:24.966Z,97655.00
2018-08-18T00:06:54.294Z,97648.00
2018-08-18T00:09:23.773Z,97663.00
2018-08-18T00:11:53.059Z,97659.00
2018-08-18T00:14:22.310Z,97663.00
2018-08-18T00:16:51.564Z,97662.00
2018-08-18T00:19:24.081Z,97660.00
2018-08-18T00:21:53.313Z,97666.00
2018-08-18T00:24:22.568Z,97666.00
2018-08-18T00:26:51.817Z,97668.00
2018-08-18T00:29:21.064Z,97679.00
2018-08-18T00:31:50.285Z,97685.00
2018-08-18T00:34:19.563Z,97692.00
2018-08-18T00:36:48.820Z,97688.00
2018-08-18T00:39:18.032Z,97698.00
2018-08-18T00:41:47.276Z,97705.00
2018-08-18T00:44:16.535Z,97702.00
2018-08-18T00:46:45.781Z,97706.00
2018-08-18T00:49:15.095Z,97706.00
2018-08-18T00:51:44.339Z,97701.00
2018-08-18T00:54:13.606Z,97703.00
2018-08-18T00:56:43.262Z,97703.00
2018-08-18T00:59:12.537Z,97701.00
2018-08-18T01:01:41.928Z,97703.00
2018-08-18T01:04:11.210Z,97709.00
2018-08-18T01:06:41.534Z,97711.00
2018-08-18T01:09:12.690Z,97711.00
2018-08-18T01:11:41.999Z,97716.00
2018-08-18T01:14:17.152Z,97714.00
2018-08-18T01:16:52.614Z,97710.00
2018-08-18T01:19:22.978Z,97709.00
2018-08-18T01:21:58.197Z,97707.00
2018-08-18T01:24:28.045Z,97699.00
2018-08-18T01:26:57.681Z,97702.00
2018-08-18T01:29:27.049Z,97697.00
2018-08-18T01:31:56.277Z,97699.00
2018-08-18T01:34:25.573Z,97707.00
2018-08-18T01:36:54.913Z,97700.00
2018-08-18T01:39:24.153Z,97703.00
2018-08-18T01:41:53.400Z,97711.00
2018-08-18T01:44:23.902Z,97709.00
2018-08-18T01:46:54.795Z,97702.00
2018-08-18T01:49:40.480Z,97710.00
2018-08-18T01:52:16.398Z,97711.00
2018-08-18T01:54:46.110Z,97720.00
2018-08-18T01:57:17.888Z,97721.00
2018-08-18T01:59:47.692Z,97727.00
2018-08-18T02:02:26.833Z,97721.00
2018-08-18T02:05:03.466Z,97716.00
2018-08-18T02:07:33.747Z,97714.00
2018-08-18T02:10:03.089Z,97713.00
2018-08-18T02:12:32.325Z,97705.00
2018-08-18T02:15:01.576Z,97704.00
2018-08-18T02:17:32.735Z,97703.00
2018-08-18T02:20:02.232Z,97705.00
2018-08-18T02:22:32.174Z,97705.00
2018-08-18T02:25:01.446Z,97705.00
2018-08-18T02:27:30.676Z,97706.00
2018-08-18T02:30:14.898Z,97707.00
2018-08-18T02:32:44.148Z,97706.00
2018-08-18T02:35:13.424Z,97710.00
2018-08-18T02:37:42.662Z,97703.00
2018-08-18T02:40:14.117Z,97695.00
2018-08-18T02:42:43.367Z,97704.00
2018-08-18T02:45:13.558Z,97699.00
2018-08-18T02:47:43.112Z,97706.00
2018-08-18T02:50:13.799Z,97699.00
2018-08-18T02:52:43.040Z,97702.00
2018-08-18T02:55:12.911Z,97706.00
2018-08-18T02:57:43.787Z,97705.00
2018-08-18T03:00:22.398Z,97701.00
2018-08-18T03:03:00.414Z,97709.00
2018-08-18T03:05:29.719Z,97711.00
2018-08-18T03:07:59.036Z,97703.00
2018-08-18T03:10:28.428Z,97698.00
2018-08-18T03:12:59.990Z,97710.00
2018-08-18T03:16:09.289Z,97707.00
2018-08-18T03:18:49.750Z,97712.00
2018-08-18T03:21:20.815Z,97709.00
2018-08-18T03:24:07.345Z,97710.00
2018-08-18T03:26:41.346Z,97713.00
2018-08-18T03:29:11.024Z,97714.00
2018-08-18T03:31:40.788Z,97710.00
2018-08-18T03:34:10.587Z,97718.00
2018-08-18T03:36:48.840Z,97711.00
2018-08-18T03:39:25.226Z,97715.00
2018-08-18T03:41:55.861Z,97720.00
2018-08-18T03:44:25.073Z,97724.00
2018-08-18T03:46:54.340Z,97719.00
2018-08-18T03:49:23.703Z,97725.00
2018-08-18T03:51:54.142Z,97736.00
2018-08-18T03:54:23.371Z,97729.00
2018-08-18T03:56:52.653Z,97725.00
2018-08-18T03:59:21.869Z,97730.00
2018-08-18T04:01:54.365Z,97739.00
2018-08-18T04:04:24.663Z,97743.00
2018-08-18T04:06:55.366Z,97738.00
2018-08-18T04:09:26.081Z,97742.00
2018-08-18T04:11:56.757Z,97744.00
2018-08-18T04:14:31.410Z,97744.00
2018-08-18T04:17:00.749Z,97750.00
2018-08-18T04:19:29.961Z,97749.00
2018-08-18T04:21:59.233Z,97756.00
2018-08-18T04:24:34.423Z,97755.00
2018-08-18T04:27:03.665Z,97757.00
2018-08-18T04:29:32.948Z,97758.00
2018-08-18T04:32:02.670Z,97766.00
2018-08-18T04:34:31.952Z,97761.00
2018-08-18T04:37:02.442Z,97766.00
2018-08-18T04:39:31.835Z,97780.00
2018-08-18T04:42:01.097Z,97774.00
2018-08-18T04:44:30.378Z,97776.00
2018-08-18T04:46:59.635Z,97792.00
2018-08-18T04:49:29.019Z,97787.00
2018-08-18T04:51:58.231Z,97791.00
2018-08-18T04:54:27.513Z,97783.00
2018-08-18T04:56:56.772Z,97808.00
2018-08-18T04:59:26.204Z,97794.00
2018-08-18T05:01:55.417Z,97796.00
2018-08-18T05:04:24.657Z,97801.00
2018-08-18T05:06:53.893Z,97810.00
2018-08-18T05:09:23.108Z,97809.00
2018-08-18T05:11:52.302Z,97799.00
2018-08-18T05:14:21.521Z,97802.00
2018-08-18T05:16:50.766Z,97798.00
2018-08-18T05:19:20.043Z,97795.00
2018-08-18T05:21:49.297Z,97805.00
2018-08-18T05:24:26.961Z,97800.00
2018-08-18T05:26:56.471Z,97796.00
2018-08-18T05:29:25.753Z,97799.00
2018-08-18T05:31:55.018Z,97794.00
2018-08-18T05:34:24.320Z,97810.00
2018-08-18T05:36:53.617Z,97809.00
2018-08-18T05:39:22.878Z,97792.00
2018-08-18T05:41:52.189Z,97796.00
2018-08-18T05:44:21.421Z,97808.00
2018-08-18T05:46:50.662Z,97806.00
2018-08-18T05:49:19.910Z,97813.00
2018-08-18T05:51:50.693Z,97818.00
2018-08-18T05:54:25.403Z,97815.00
2018-08-18T05:56:55.704Z,97820.00
2018-08-18T05:59:24.965Z,97817.00
2018-08-18T06:01:54.224Z,97811.00
2018-08-18T06:04:23.463Z,97822.00
2018-08-18T06:06:53.338Z,97814.00
2018-08-18T06:09:23.352Z,97828.00
2018-08-18T06:11:53.456Z,97820.00
2018-08-18T06:14:22.690Z,97830.00
2018-08-18T06:16:52.654Z,97824.00
2018-08-18T06:19:21.892Z,97831.00
2018-08-18T06:21:51.124Z,97836.00
2018-08-18T06:24:20.481Z,97835.00
2018-08-18T06:26:49.706Z,97829.00
2018-08-18T06:29:18.952Z,97830.00
2018-08-18T06:32:00.749Z,97833.00
2018-08-18T06:34:31.844Z,97834.00
2018-08-18T06:37:02.197Z,97833.00
2018-08-18T06:39:50.872Z,97845.00
2018-08-18T06:42:46.280Z,97841.00
2018-08-18T06:45:18.179Z,97854.00
2018-08-18T06:47:47.463Z,97846.00
2018-08-18T06:50:17.714Z,97848.00
2018-08-18T06:52:47.536Z,97858.00
2018-08-18T06:55:18.931Z,97854.00
2018-08-18T06:57:51.680Z,97855.00
2018-08-18T07:00:25.362Z,97867.00
2018-08-18T07:02:54.748Z,97863.00
2018-08-18T07:05:23.989Z,97862.00
2018-08-18T07:07:53.219Z,97859.00
2018-08-18T07:10:35.565Z,97863.00
2018-08-18T07:13:08.250Z,97862.00
2018-08-18T07:15:39.738Z,97858.00
2018-08-18T07:18:10.956Z,97875.00
2018-08-18T07:20:40.258Z,97860.00
2018-08-18T07:23:09.640Z,97867.00
2018-08-18T07:25:48.730Z,97861.00
2018-08-18T07:28:22.288Z,97870.00
2018-08-18T07:30:51.601Z,97867.00
2018-08-18T07:33:20.832Z,97872.00
2018-08-18T07:35:50.224Z,97869.00
2018-08-18T07:38:19.482Z,97871.00
2018-08-18T07:40:50.973Z,97875.00
2018-08-18T07:43:23.409Z,97879.00
2018-08-18T07:45:54.886Z,97885.00
2018-08-18T07:48:25.078Z,97888.00
2018-08-18T07:50:54.329Z,97883.00
2018-08-18T07:53:23.603Z,97888.00
2018-08-18T07:55:52.882Z,97900.00
2018-08-18T07:58:24.637Z,97899.00
2018-08-18T08:00:56.942Z,97898.00
2018-08-18T08:03:26.300Z,97907.00
2018-08-18T08:05:55.780Z,97905.00
2018-08-18T08:08:25.591Z,97899.00
2018-08-18T08:10:59.809Z,97908.00
2018-08-18T08:13:29.109Z,97907.00
2018-08-18T08:15:58.451Z,97901.00
2018-08-18T08:18:27.766Z,97903.00
2018-08-18T08:20:57.112Z,97905.00
2018-08-18T08:23:26.371Z,97911.00
2018-08-18T08:25:55.737Z,97909.00
2018-08-18T08:28:25.706Z,97908.00
2018-08-18T08:30:55.118Z,97920.00
2018-08-18T08:33:36.401Z,97906.00
2018-08-18T08:36:13.445Z,97915.00
2018-08-18T08:39:00.041Z,97908.00
2018-08-18T08:41:31.797Z,97920.00
2018-08-18T08:44:01.357Z,97916.00
2018-08-18T08:46:30.654Z,97917.00
2018-08-18T08:49:01.568Z,97918.00
2018-08-18T08:51:30.863Z,97916.00
2018-08-18T08:54:00.666Z,97919.00
2018-08-18T08:56:45.444Z,97926.00
2018-08-18T08:59:14.741Z,97922.00
2018-08-18T09:01:44.016Z,97923.00
2018-08-18T09:04:13.269Z,97926.00
2018-08-18T09:06:48.685Z,97918.00
2018-08-18T09:09:17.913Z,97917.00
2018-08-18T09:11:47.177Z,97911.00
2018-08-18T09:14:16.404Z,97910.00
2018-08-18T09:16:45.688Z,97917.00
2018-08-18T09:19:14.924Z,97919.00
2018-08-18T09:21:49.390Z,97924.00
2018-08-18T09:24:18.913Z,97926.00
2018-08-18T09:27:09.355Z,97924.00
2018-08-18T09:29:44.870Z,97930.00
2018-08-18T09:32:14.534Z,97924.00
2018-08-18T09:34:50.670Z,97923.00
2018-08-18T09:37:20.625Z,97918.00
2018-08-18T09:39:49.860Z,97924.00
2018-08-18T09:42:20.055Z,97921.00
2018-08-18T09:44:50.777Z,97927.00
2018-08-18T09:47:20.060Z,97920.00
2018-08-18T09:49:49.309Z,97914.00
2018-08-18T09:52:20.078Z,97916.00
2018-08-18T09:54:49.356Z,97923.00
2018-08-18T09:57:18.611Z,97928.00
2018-08-18T09:59:47.887Z,97927.00
2018-08-18T10:02:17.108Z,97924.00
2018-08-18T10:04:46.351Z,97927.00
2018-08-18T10:07:15.635Z,97931.00
2018-08-18T10:09:44.869Z,97926.00
2018-08-18T10:12:14.185Z,97933.00
2018-08-18T10:14:43.430Z,97924.00
2018-08-18T10:17:12.733Z,97932.00
2018-08-18T10:19:41.968Z,97927.00
2018-08-18T10:22:11.224Z,97924.00
2018-08-18T10:24:40.783Z,97922.00
2018-08-18T10:27:10.136Z,97915.00
2018-08-18T10:29:45.712Z,97911.00
2018-08-18T10:32:15.030Z,97911.00
2018-08-18T10:34:44.281Z,97917.00
2018-08-18T10:37:14.888Z,97907.00
2018-08-18T10:39:44.097Z,97909.00
2018-08-18T10:42:16.045Z,97911.00
2018-08-18T10:44:51.512Z,97906.00
2018-08-18T10:47:23.076Z,97903.00
2018-08-18T10:50:09.676Z,97914.00
2018-08-18T10:52:56.204Z,97912.00
2018-08-18T10:55:25.425Z,97909.00
2018-08-18T10:58:00.724Z,97907.00
2018-08-18T11:00:31.225Z,97911.00
2018-08-18T11:03:02.171Z,97909.00
2018-08-18T11:05:31.795Z,97911.00
2018-08-18T11:08:08.838Z,97907.00
2018-08-18T11:10:40.333Z,97905.00
2018-08-18T11:13:09.672Z,97913.00
2018-08-18T11:15:38.897Z,97911.00
2018-08-18T11:18:08.286Z,97911.00
2018-08-18T11:20:37.550Z,97914.00
2018-08-18T11:23:10.816Z,97927.00
2018-08-18T11:25:45.697Z,97919.00
2018-08-18T11:28:15.851Z,97915.00
2018-08-18T11:30:45.170Z,97919.00
2018-08-18T11:33:31.221Z,97921.00
2018-08-18T11:36:00.575Z,97919.00
2018-08-18T11:38:29.868Z,97910.00
2018-08-18T11:40:59.114Z,97913.00
2018-08-18T11:43:28.959Z,97911.00
2018-08-18T11:45:58.196Z,97911.00
2018-08-18T11:48:27.653Z,97909.00
2018-08-18T11:50:57.466Z,97917.00
2018-08-18T11:53:26.823Z,97906.00
2018-08-18T11:55:56.073Z,97903.00
2018-08-18T11:58:25.698Z,97914.00
2018-08-18T12:00:58.140Z,97918.00
2018-08-18T12:03:31.774Z,97913.00
2018-08-18T12:06:03.380Z,97916.00
2018-08-18T12:08:34.377Z,97912.00
2018-08-18T12:11:05.880Z,97917.00
2018-08-18T12:13:41.060Z,97912.00
2018-08-18T12:16:13.324Z,97906.00
2018-08-18T12:18:44.218Z,97902.00
2018-08-18T12:21:13.660Z,97904.00
2018-08-18T12:23:46.833Z,97903.00
2018-08-18T12:26:20.503Z,97901.00
2018-08-18T12:28:55.097Z,97895.00
2018-08-18T12:31:27.466Z,97902.00
2018-08-18T12:33:56.901Z,97910.00
2018-08-18T12:36:26.478Z,97899.00
2018-08-18T12:38:57.140Z,97890.00
2018-08-18T12:41:26.541Z,97901.00
2018-08-18T12:43:57.200Z,97894.00
2018-08-18T12:46:35.747Z,97890.00
2018-08-18T12:49:06.583Z,97885.00
2018-08-18T12:51:35.811Z,97892.00
2018-08-18T12:54:10.666Z,97884.00
2018-08-18T12:56:39.906Z,97879.00
2018-08-18T12:59:09.703Z,97877.00
2018-08-18T13:01:43.669Z,97881.00
2018-08-18T13:04:14.391Z,97876.00
2018-08-18T13:06:51.098Z,97878.00
2018-08-18T13:09:21.668Z,97877.00
2018-08-18T13:11:52.170Z,97876.00
2018-08-18T13:14:30.157Z,97870.00
2018-08-18T13:16:59.402Z,97863.00
2018-08-18T13:19:32.750Z,97860.00
2018-08-18T13:22:02.013Z,97855.00
2018-08-18T13:24:32.319Z,97859.00
2018-08-18T13:27:02.628Z,97851.00
2018-08-18T13:29:32.637Z,97851.00
2018-08-18T13:32:01.927Z,97845.00
2018-08-18T13:34:31.209Z,97858.00
2018-08-18T13:37:00.433Z,97847.00
2018-08-18T13:39:29.765Z,97851.00
2018-08-18T13:41:59.495Z,97841.00
2018-08-18T13:44:43.211Z,97843.00
2018-08-18T13:47:12.481Z,97848.00
2018-08-18T13:49:41.741Z,97848.00
2018-08-18T13:52:11.083Z,97844.00
2018-08-18T13:54:47.373Z,97855.00
2018-08-18T13:57:20.743Z,97855.00
2018-08-18T13:59:50.030Z,97846.00
2018-08-18T14:02:19.261Z,97847.00
2018-08-18T14:04:48.564Z,97847.00
2018-08-18T14:07:17.900Z,97836.00
2018-08-18T14:09:52.505Z,97838.00
2018-08-18T14:12:21.737Z,97819.00
2018-08-18T14:14:51.004Z,97841.00
2018-08-18T14:17:22.155Z,97828.00
2018-08-18T14:19:51.958Z,97825.00
2018-08-18T14:22:23.042Z,97827.00
2018-08-18T14:24:52.301Z,97828.00
2018-08-18T14:27:23.074Z,97826.00
2018-08-18T14:29:52.314Z,97824.00
2018-08-18T14:32:27.579Z,97827.00
2018-08-18T14:35:08.041Z,97826.00
2018-08-18T14:37:40.414Z,97819.00
2018-08-18T14:40:13.586Z,97821.00
2018-08-18T14:42:42.833Z,97818.00
2018-08-18T14:45:14.736Z,97820.00
2018-08-18T14:47:44.416Z,97818.00
2018-08-18T14:50:18.918Z,97817.00
2018-08-18T14:52:48.176Z,97818.00
2018-08-18T14:55:17.689Z,97817.00
2018-08-18T14:58:02.410Z,97818.00
2018-08-18T15:00:32.183Z,97812.00
2018-08-18T15:03:01.521Z,97813.00
2018-08-18T15:05:30.925Z,97803.00
2018-08-18T15:08:00.424Z,97814.00
2018-08-18T15:10:39.670Z,97807.00
2018-08-18T15:13:09.706Z,97806.00
2018-08-18T15:15:39.191Z,97800.00
2018-08-18T15:18:11.542Z,97807.00
2018-08-18T15:20:41.565Z,97792.00
2018-08-18T15:23:11.646Z,97795.00
2018-08-18T15:25:41.805Z,97789.00
2018-08-18T15:28:12.229Z,97790.00
2018-08-18T15:30:43.801Z,97782.00
2018-08-18T15:33:16.898Z,97789.00
2018-08-18T15:35:46.208Z,97784.00
2018-08-18T15:38:15.505Z,97787.00
2018-08-18T15:40:45.032Z,97785.00
2018-08-18T15:43:14.254Z,97785.00
2018-08-18T15:46:02.732Z,97791.00
2018-08-18T15:48:32.384Z,97790.00
2018-08-18T15:51:01.663Z,97791.00
2018-08-18T15:53:59.880Z,97795.00
2018-08-18T15:56:30.275Z,97789.00
2018-08-18T15:59:00.320Z,97793.00
2018-08-18T16:01:30.965Z,97796.00
2018-08-18T16:04:01.923Z,97792.00
2018-08-18T16:06:31.416Z,97791.00
2018-08-18T16:09:00.670Z,97793.00
2018-08-18T16:11:30.002Z,97796.00
2018-08-18T16:13:59.357Z,97788.00
2018-08-18T16:16:28.661Z,97790.00
2018-08-18T16:19:03.933Z,97788.00
2018-08-18T16:21:34.637Z,97787.00
2018-08-18T16:24:03.951Z,97774.00
2018-08-18T16:26:33.404Z,97781.00
2018-08-18T16:29:02.692Z,97781.00
2018-08-18T16:31:31.953Z,97788.00
2018-08-18T16:34:01.225Z,97783.00
2018-08-18T16:36:35.679Z,97772.00
2018-08-18T16:39:05.200Z,97766.00
2018-08-18T16:41:34.454Z,97778.00
2018-08-18T16:44:03.714Z,97781.00
2018-08-18T16:46:33.085Z,97778.00
2018-08-18T16:49:02.359Z,97760.00
2018-08-18T16:51:31.671Z,97747.00
2018-08-18T16:54:33.309Z,97777.00
2018-08-18T16:57:02.589Z,97786.00
2018-08-18T16:59:35.214Z,97792.00
2018-08-18T17:02:05.326Z,97792.00
2018-08-18T17:04:35.273Z,97790.00
2018-08-18T17:07:11.564Z,97793.00
2018-08-18T17:09:42.229Z,97796.00
2018-08-18T17:12:21.124Z,97786.00
2018-08-18T17:14:50.421Z,97799.00
2018-08-18T17:17:22.536Z,97807.00
2018-08-18T17:19:51.850Z,97806.00
2018-08-18T17:22:21.189Z,97807.00
2018-08-18T17:24:50.585Z,97811.00
2018-08-18T17:27:19.863Z,97818.00
2018-08-18T17:29:50.900Z,97815.00
2018-08-18T17:32:20.206Z,97816.00
2018-08-18T17:34:49.487Z,97813.00
2018-08-18T17:37:18.765Z,97820.00
2018-08-18T17:39:48.161Z,97812.00
2018-08-18T17:42:17.505Z,97817.00
2018-08-18T17:44:46.796Z,97818.00
2018-08-18T17:47:16.063Z,97822.00
2018-08-18T17:49:50.605Z,97819.00
2018-08-18T17:52:19.891Z,97827.00
2018-08-18T17:55:07.583Z,97823.00
2018-08-18T17:57:37.876Z,97813.00
2018-08-18T18:00:17.296Z,97822.00
2018-08-18T18:02:53.041Z,97835.00
2018-08-18T18:05:24.454Z,97826.00
2018-08-18T18:07:59.615Z,97834.00
2018-08-18T18:10:35.435Z,97841.00
2018-08-18T18:13:18.595Z,97841.00
2018-08-18T18:15:48.473Z,97842.00
2018-08-18T18:18:19.307Z,97841.00
2018-08-18T18:20:49.665Z,97844.00
2018-08-18T18:23:19.396Z,97846.00
2018-08-18T18:25:48.625Z,97842.00
2018-08-18T18:28:17.951Z,97848.00
2018-08-18T18:30:47.205Z,97861.00
2018-08-18T18:33:16.549Z,97853.00
2018-08-18T18:35:45.792Z,97852.00
2018-08-18T18:38:15.047Z,97855.00
2018-08-18T18:40:45.374Z,97855.00
2018-08-18T18:43:14.636Z,97866.00
2018-08-18T18:45:43.918Z,97867.00
2018-08-18T18:48:15.223Z,97869.00
2018-08-18T18:50:46.406Z,97865.00
2018-08-18T18:53:15.886Z,97870.00
2018-08-18T18:55:50.719Z,97874.00
2018-08-18T18:58:19.991Z,97872.00
2018-08-18T19:00:55.877Z,97875.00
2018-08-18T19:03:25.148Z,97882.00
2018-08-18T19:05:54.427Z,97892.00
2018-08-18T19:08:23.674Z,97881.00
2018-08-18T19:10:52.902Z,97880.00
2018-08-18T19:13:22.143Z,97886.00
2018-08-18T19:15:51.435Z,97892.00
2018-08-18T19:18:20.667Z,97886.00
2018-08-18T19:20:49.900Z,97892.00
2018-08-18T19:23:20.404Z,97887.00
2018-08-18T19:25:50.861Z,97891.00
2018-08-18T19:28:22.418Z,97890.00
2018-08-18T19:30:51.729Z,97898.00
2018-08-18T19:33:21.245Z,97896.00
2018-08-18T19:35:52.904Z,97897.00
2018-08-18T19:38:23.269Z,97900.00
2018-08-18T19:40:55.950Z,97905.00
2018-08-18T19:43:27.207Z,97904.00
2018-08-18T19:45:57.051Z,97909.00
2018-08-18T19:48:27.706Z,97906.00
2018-08-18T19:51:03.633Z,97913.00
2018-08-18T19:53:35.215Z,97919.00
2018-08-18T19:56:08.539Z,97917.00
2018-08-18T19:58:37.800Z,97922.00
2018-08-18T20:01:07.260Z,97924.00
2018-08-18T20:03:36.502Z,97934.00
2018-08-18T20:06:09.848Z,97929.00
2018-08-18T20:08:39.102Z,97931.00
2018-08-18T20:11:08.385Z,97934.00
2018-08-18T20:13:37.705Z,97928.00
2018-08-18T20:16:07.292Z,97933.00
2018-08-18T20:18:36.578Z,97926.00
2018-08-18T20:21:05.855Z,97934.00
2018-08-18T20:23:35.138Z,97923.00
2018-08-18T20:26:04.380Z,97924.00
2018-08-18T20:28:33.673Z,97922.00
2018-08-18T20:31:03.056Z,97927.00
2018-08-18T20:33:32.387Z,97923.00
2018-08-18T20:36:01.664Z,97929.00
2018-08-18T20:38:39.038Z,97929.00
2018-08-18T20:41:08.260Z,97925.00
2018-08-18T20:43:37.521Z,97936.00
2018-08-18T20:46:06.877Z,97930.00
2018-08-18T20:48:36.215Z,97925.00
2018-08-18T20:51:05.368Z,97923.00
2018-08-18T20:53:34.692Z,97926.00
2018-08-18T20:56:04.067Z,97926.00
2018-08-18T20:58:33.907Z,97929.00
2018-08-18T21:01:03.536Z,97931.00
2018-08-18T21:03:51.690Z,97927.00
2018-08-18T21:06:20.960Z,97936.00
2018-08-18T21:08:50.251Z,97926.00
2018-08-18T21:11:19.584Z,97934.00
2018-08-18T21:13:50.049Z,97928.00
2018-08-18T21:16:20.170Z,97932.00
2018-08-18T21:18:49.450Z,97930.00
2018-08-18T21:21:35.493Z,97924.00
2018-08-18T21:24:05.140Z,97931.00
2018-08-18T21:26:34.514Z,97929.00
2018-08-18T21:29:03.912Z,97932.00
2018-08-18T21:31:33.171Z,97928.00
2018-08-18T21:34:03.424Z,97930.00
2018-08-18T21:36:33.220Z,97927.00
2018-08-18T21:39:06.025Z,97931.00
2018-08-18T21:41:37.809Z,97928.00
2018-08-18T21:44:09.184Z,97934.00
2018-08-18T21:46:38.933Z,97937.00
2018-08-18T21:49:08.473Z,97929.00
2018-08-18T21:51:37.766Z,97929.00
2018-08-18T21:54:07.014Z,97927.00
2018-08-18T21:56:38.589Z,97929.00
2018-08-18T21:59:10.054Z,97934.00
2018-08-18T22:01:39.353Z,97924.00
2018-08-18T22:04:09.749Z,97916.00
2018-08-18T22:06:39.025Z,97927.00
2018-08-18T22:09:21.594Z,97923.00
2018-08-18T22:11:50.982Z,97929.00
2018-08-18T22:14:20.232Z,97924.00
2018-08-18T22:16:54.610Z,97928.00
2018-08-18T22:19:24.057Z,97918.00
2018-08-18T22:21:53.376Z,97922.00
2018-08-18T22:24:22.789Z,97916.00
2018-08-18T22:26:52.085Z,97919.00
2018-08-18T22:29:26.037Z,97925.00
2018-08-18T22:31:55.330Z,97911.00
2018-08-18T22:34:24.698Z,97905.00
2018-08-18T22:37:01.738Z,97905.00
2018-08-18T22:39:31.126Z,97902.00
2018-08-18T22:42:00.351Z,97892.00
2018-08-18T22:44:29.614Z,97901.00
2018-08-18T22:46:58.876Z,97894.00
2018-08-18T22:49:28.148Z,97902.00
2018-08-18T22:51:57.426Z,97895.00
2018-08-18T22:54:26.852Z,97883.00
2018-08-18T22:57:01.536Z,97897.00
2018-08-18T22:59:31.361Z,97899.00
2018-08-18T23:02:00.689Z,97905.00
2018-08-18T23:04:35.303Z,97899.00
2018-08-18T23:07:05.737Z,97911.00
2018-08-18T23:09:34.988Z,97910.00
2018-08-18T23:12:06.568Z,97903.00
2018-08-18T23:14:36.868Z,97895.00
2018-08-18T23:17:07.788Z,97904.00
2018-08-18T23:19:37.084Z,97908.00
2018-08-18T23:22:06.332Z,97910.00
2018-08-18T23:24:37.753Z,97915.00
2018-08-18T23:27:06.981Z,97918.00
2018-08-18T23:29:36.257Z,97915.00
2018-08-18T23:32:16.517Z,97917.00
2018-08-18T23:34:45.785Z,97909.00
2018-08-18T23:37:19.994Z,97918.00
2018-08-18T23:39:54.020Z,97906.00
2018-08-18T23:42:25.031Z,97904.00
2018-08-18T23:44:54.297Z,97918.00
2018-08-18T23:47:23.561Z,97915.00
2018-08-18T23:49:52.777Z,97911.00
2018-08-18T23:52:22.025Z,97914.00
2018-08-18T23:54:51.305Z,97909.00
2018-08-18T23:57:20.545Z,97915.00
2018-08-18T23:59:50.711Z,97904.00
